Refugio, Texas
Current Conditions -  °F | °C
As of 11:53 PM on Tuesday 27 Jan 2015 (Local Time) from KRKP Reporting Station
Clear Clear  
Wind Chill: 60°   Ceiling: Unl
Heat Index: 60°   Visibility: 10mi
Dew Point: 48°   Wind: 6mph
Humidity: 64%   Direction: 200°SSW
Pressure: 30.15"   Gusts: NA
Location:  28.31°N, 97.28°W
Report Text: KRKP 280553Z AUTO 20005KT 10SM CLR 16/09 A3015 RMK AO2 SLP210 T01560089 10200 20156 402720094 53001 $
Loading
Personal Weather Stations






























Interactive Weather Map New forecast layout! Learn more

10-Day Weather Forecast

Advertisements
Track Severe Weather on mobile